Hoppa till innehåll

METAR väder och rapporter - ESKN

Nedan listas information från vald flygplats. Andra METARs finns längre ned på sidan. Kontakta oss om någon saknas eller skriv in egen ICAO-kod.

Coded METAR: 2022/05/17 13:20 ESKN 171320Z 31008KT 260V040 CAVOK 13/M02 Q1026

Weather Report @ ESKN

Issued: 17th May 2022 at 15:20 CEST

Wind: gentle breeze from the Northwest (310 degrees) at 8 knots (9 mph, 15 kph, 4 mps, Force 3)
Wind: direction varying between from the West (260 degrees) and from the Northeast (040 degrees)
Weather: good visibility and no low cloud (ceiling and visibility OK)
Temperature: 55F / 13C
Dewpoint: 28F / -2C
Humidity: 35%
Pressure: 1026 hPa

Coded TAF: 2022/05/17 12:18 TAF TAF ESKN 171130Z 1712/1812 01008KT CAVOK BECMG 1715/1717 15010KT BECMG 1804/1806 25010KT

Weather Forecast @ ESKN

Issued: 17th May 2022 at 14:18 CEST

Valid : 17th May 14:00 until 18th May 14:00 CEST

14:00 CEST
Wind: gentle breeze from the North (010 degrees) at 8 knots (9 mph, 15 kph, 4 mps, Force 3)
Weather: good visibility and no low cloud (ceiling and visibility OK)

17:00 CEST to 19:00 CEST
becoming:

Wind: gentle breeze from South-Southeast (150 degrees) at 10 knots (12 mph, 19 kph, 5 mps, Force 3)

06:00 CEST to 08:00 CEST
becoming:

Wind: gentle breeze from West-Southwest (250 degrees) at 10 knots (12 mph, 19 kph, 5 mps, Force 3)

Internet delivery of weather data is not secure or reliable enough for operational purposes.

NEVER RELY ON THE OUTPUT OF THIS SCRIPT TO MAKE DECISIONS ABOUT ANYTHING IN WHICH THE WEATHER FORECAST AND ITS INTERPRETATION COULD BE AN ISSUE OF SAFETY.

Andra intressanta METARs

Klicka på önskad rubrik nedan för att visa nuvarande väder för den platsen.

Avstånd från stationen: NO 27kmESGG - Göteborg (Landvetter)
Uppdaterad: 2022-05-17 15:20
 Vind från NNO
Vind: NNO 17 km/h
Temperatur: 17°C
Daggpunkt: -3°C
Luftfuktighet: 25%
Barometer: 1024 hPa
Summering: Klart
Sikt: mer än 10 km
2022/05/17 13:20 ESGG 171320Z 02009KT 330V070 CAVOK 17/M03 Q1024
Klart
Klart
  Visa detaljer för Göteborg (Landvetter)
Avstånd från stationen: N 28kmESGP - Göteborg (Säve)
Uppdaterad: 2022-05-17 15:20
 Vind från NO
Vind: NO 17 km/h
Temperatur: 18°C
Daggpunkt: -4°C
Luftfuktighet: 22%
Barometer: 1024 hPa
Summering: Klart
Sikt: mer än 10 km
2022/05/17 13:20 ESGP 171320Z 04009KT 360V080 CAVOK 18/M04 Q1024
Klart
Klart
  Visa detaljer för Göteborg (Säve)
Avstånd från stationen: NO 419kmESSA - Stockholm (Arlanda)
Uppdaterad: 2022-05-17 15:20
 Vind från NNO
Vind: NNO 15 km/h
Vindby: 43 km/h
Temperatur: 10°C
Vindavkylning: 8°C
Daggpunkt: -2°C
Luftfuktighet: 43%
Barometer: 1026 hPa
Summering: Klart
Sikt: mer än 10 km
2022/05/17 13:20 ESSA 171320Z 02008G23KT 340V060 CAVOK 10/M02 Q1026 NOSIG
Klart
Klart
  Visa detaljer för Stockholm (Arlanda)
Avstånd från stationen: ONO 404kmESSB - Stockholm (Bromma)
Uppdaterad: 2022-05-17 15:20
 Vind från N
Vind: N 13 km/h
Temperatur: 11°C
Daggpunkt: -3°C
Luftfuktighet: 38%
Barometer: 1026 hPa
Summering: Klart
Sikt: mer än 10 km
2022/05/17 13:20 ESSB 171320Z 01007KT 310V050 CAVOK 11/M03 Q1026
Klart
Klart
  Visa detaljer för Stockholm (Bromma)
Avstånd från stationen: ONO 323kmESKN - Stockholm (Skavsta)
Uppdaterad: 2022-05-17 15:20
 Vind från NV
Vind: NV 15 km/h
Temperatur: 13°C
Daggpunkt: -2°C
Luftfuktighet: 36%
Barometer: 1026 hPa
Summering: Klart
Sikt: mer än 10 km
2022/05/17 13:20 ESKN 171320Z 31008KT 260V040 CAVOK 13/M02 Q1026
Klart
Klart
  Visa detaljer för Stockholm (Skavsta)
Avstånd från stationen: SSO 238kmESMS - Malmö flygplats (Sturup)
Uppdaterad: 2022-05-17 15:20
 Vind från O
Vind: O 24 km/h
Temperatur: 15°C
Daggpunkt: -1°C
Luftfuktighet: 34%
Barometer: 1024 hPa
Summering: Klart
Sikt: mer än 10 km
2022/05/17 13:20 ESMS 171320Z 09013KT CAVOK 15/M01 Q1024
Klart
Klart
  Visa detaljer för Malmö flygplats (Sturup)
Avstånd från stationen: O 382kmESSV - Visby flygplats
Uppdaterad: 2022-05-17 15:20
 Vind från N
Vind: N 19 km/h
Temperatur: 11°C
Daggpunkt: -2°C
Luftfuktighet: 41%
Barometer: 1026 hPa
Summering: Klart
Sikt: mer än 10 km
2022/05/17 13:20 ESSV 171320Z 01010KT CAVOK 11/M02 Q1026
Klart
Klart
  Visa detaljer för Visby flygplats
Avstånd från stationen: NNO 92kmESGT - Trollhättan
Uppdaterad: 2022-05-17 15:20
 Vind från NNO
Vind: NNO 22 km/h
Temperatur: 13°C
Daggpunkt: -3°C
Luftfuktighet: 33%
Barometer: 1026 hPa
Summering: Klart
Sikt: mer än 10 km
2022/05/17 13:20 ESGT 171320Z 02012KT CAVOK 13/M03 Q1026
Klart
Klart
  Visa detaljer för Trollhättan
Avstånd från stationen: ONO 129kmESGJ - Jönköpings flygplats
Uppdaterad: 2022-05-17 15:20
 Vind från NO
Vind: NO 17 km/h
Temperatur: 13°C
Daggpunkt: -3°C
Luftfuktighet: 33%
Barometer: 1025 hPa
Summering: Klart
Sikt: mer än 10 km
2022/05/17 13:20 ESGJ 171320Z 04009KT CAVOK 13/M03 Q1025
Klart
Klart
  Visa detaljer för Jönköpings flygplats
Avstånd från stationen: NNO 229kmESOK - Karlstad
Uppdaterad: 2022-05-17 15:20
 Vind från N
Vind: N 7 km/h
Temperatur: 14°C
Daggpunkt: -5°C
Luftfuktighet: 27%
Barometer: 1026 hPa
Summering: Klart
Sikt: mer än 10 km
2022/05/17 13:20 ESOK 171320Z 36004KT 270V080 CAVOK 14/M05 Q1026
Klart
Klart
  Visa detaljer för Karlstad
Avstånd från stationen: N 643kmESNZ - Östersund (Frösön)
Uppdaterad: 2022-05-17 15:20
 Vind från varierande
Vind: varierande 4 km/h
Temperatur: 11°C
Daggpunkt: -8°C
Luftfuktighet: 26%
Barometer: 1024 hPa
Summering: Klart
Sikt: mer än 10 km
2022/05/17 13:20 ESNZ 171320Z VRB02KT CAVOK 11/M08 Q1024
Klart
Klart
  Visa detaljer för Östersund (Frösön)
Avstånd från stationen: SSO 216kmEKCH - Köpenhamn (Kastrup)
Uppdaterad: 2022-05-17 15:20
 Vind från SO
Vind: SO 17 km/h
Temperatur: 17°C
Daggpunkt: 1°C
Luftfuktighet: 34%
Barometer: 1024 hPa
Moln: Klart
Sikt: 10 km
2022/05/17 13:20 EKCH 171320Z AUTO 14009KT 9999 NCD 17/01 Q1024 NOSIG
Klart
Klart
  Visa detaljer för Köpenhamn (Kastrup)
Avstånd från stationen: SV 263kmEKBI - Billund Airport
Uppdaterad: 2022-05-17 15:20
 Vind från O
Vind: O 24 km/h
Temperatur: 19°C
Daggpunkt: 7°C
Luftfuktighet: 46%
Barometer: 1022 hPa
Moln: Övervägande molnigt
Sikt: 10 km
Molninformation: Övervägande molnigt 3658 m
2022/05/17 13:20 EKBI 171320Z AUTO 09013KT 060V130 9999 BKN120/// 19/07 Q1022
Övervägande molnigt
Övervägande molnigt
  Visa detaljer för Billund Airport
Avstånd från stationen: N 302kmENGM - Oslo (Gardermoen)
Uppdaterad: 2022-05-17 15:20
 Vind från varierande
Vind: varierande 7 km/h
Temperatur: 15°C
Daggpunkt: -3°C
Luftfuktighet: 29%
Barometer: 1025 hPa
Summering: Klart
Sikt: mer än 10 km
2022/05/17 13:20 ENGM 171320Z VRB04KT CAVOK 15/M03 Q1025 NOSIG
Klart
Klart
  Visa detaljer för Oslo (Gardermoen)
Avstånd från stationen: NO 540kmEFMA - Mariehamn / Åland
Uppdaterad: 2022-05-17 15:20
 Vind från NNV
Vind: NNV 24 km/h
Temperatur: 8°C
Vindavkylning: 4°C
Daggpunkt: 0°C
Luftfuktighet: 57%
Barometer: 1026 hPa
Summering: Klart
Sikt: mer än 10 km
2022/05/17 13:20 EFMA 171320Z AUTO 34013KT 320V020 CAVOK 08/M00 Q1026
Klart
Klart
  Visa detaljer för Mariehamn / Åland
Avstånd från stationen: S 558kmEDDT - Berlin (Tegel), Germany
Uppdaterad: 2020-11-09 07:50
Ej aktuell
 Vind från O
Vind: O 11 km/h
Temperatur: 6°C
Vindavkylning: 4°C
Daggpunkt: 5°C
Luftfuktighet: 93%
Barometer: 1027 hPa
Summering: Dimmigt
Moln: Genommulet
Sikt: 3 km
Molninformation: Genommulet 91 m
2020/11/09 06:50 EDDT 090650Z 09006KT 050V120 3000 BR OVC003 06/05 Q1027
Dimmigt, Genommulet
Dimmigt
Genommulet
  Visa detaljer för Berlin (Tegel), Germany
Avstånd från stationen: SV 737kmEHAM - Amsterdam (Schiphol)
Uppdaterad: 2022-05-17 15:25
 Vind från SO
Vind: SO 11 km/h
Temperatur: 22°C
Daggpunkt: 14°C
Luftfuktighet: 61%
Barometer: 1019 hPa
Moln: Övervägande molnigt
Sikt: 10 km
Molninformation: Övervägande molnigt 1067 m
2022/05/17 13:25 EHAM 171325Z 13006KT 040V180 9999 BKN035 22/14 Q1019 NOSIG
Övervägande molnigt
Övervägande molnigt
  Visa detaljer för Amsterdam (Schiphol)
Avstånd från stationen: ONO 808kmEFHK - Helsingfors (Vantaa)
Uppdaterad: 2022-05-17 15:20
 Vind från NNV
Vind: NNV 22 km/h
Temperatur: 11°C
Daggpunkt: 1°C
Luftfuktighet: 50%
Barometer: 1020 hPa
Moln: Övervägande molnigt
Sikt: 10 km
Molninformation: Övervägande molnigt 1250 m
2022/05/17 13:20 EFHK 171320Z 33012KT 300V010 9999 BKN041 11/01 Q1020 NOSIG
Övervägande molnigt
Övervägande molnigt
  Visa detaljer för Helsingfors (Vantaa)
Avstånd från stationen: SSV 537kmEDDW - Bremen
Uppdaterad: 2022-05-17 15:20
 Vind från varierande
Vind: varierande 11 km/h
Temperatur: 23°C
Daggpunkt: 12°C
Luftfuktighet: 50%
Barometer: 1020 hPa
Moln: Några få moln
Sikt: 10 km
Molninformation: Några få moln 1250 m
2022/05/17 13:20 EDDW 171320Z AUTO VRB06KT 9999 FEW041 23/12 Q1020 NOSIG
Några få moln
Några få moln
  Visa detaljer för Bremen
Avstånd från stationen: SSV 861kmEDDF - Frankfurt am Main
Uppdaterad: 2022-05-17 15:20
 Vind från varierande
Vind: varierande 6 km/h
Temperatur: 25°C
Daggpunkt: 10°C
Luftfuktighet: 39%
Barometer: 1021 hPa
Summering: Klart
Sikt: mer än 10 km
2022/05/17 13:20 EDDF 171320Z VRB03KT CAVOK 25/10 Q1021 NOSIG
Klart
Klart
  Visa detaljer för Frankfurt am Main
Avstånd från stationen: SV 880kmEBBR - Bryssel international
Uppdaterad: 2022-05-17 15:20
 Vind från SSV
Vind: SSV 24 km/h
Temperatur: 26°C
Daggpunkt: 6°C
Luftfuktighet: 28%
Barometer: 1019 hPa
Summering: Klart
Sikt: mer än 10 km
2022/05/17 13:20 EBBR 171320Z 21013KT CAVOK 26/06 Q1019 NOSIG
Klart
Klart
  Visa detaljer för Bryssel international
Avstånd från stationen: SV 738kmEHAM - Amsterdam (Schiphol)
Uppdaterad: 2022-05-17 15:25
 Vind från SO
Vind: SO 11 km/h
Temperatur: 22°C
Daggpunkt: 14°C
Luftfuktighet: 61%
Barometer: 1019 hPa
Moln: Övervägande molnigt
Sikt: 10 km
Molninformation: Övervägande molnigt 1067 m
2022/05/17 13:25 EHAM 171325Z 13006KT 040V180 9999 BKN035 22/14 Q1019 NOSIG
Övervägande molnigt
Övervägande molnigt
  Visa detaljer för Amsterdam (Schiphol)
Avstånd från stationen: SV 1044kmEGLL - London (Heathrow)
Uppdaterad: 2022-05-17 15:20
 Vind från SSO
Vind: SSO 22 km/h
Temperatur: 26°C
Daggpunkt: 12°C
Luftfuktighet: 42%
Barometer: 1017 hPa
Moln: Några få moln
Sikt: 10 km
Molninformation: Några få moln 1494 m
2022/05/17 13:20 EGLL 171320Z AUTO 15012KT 130V190 9999 FEW049 26/12 Q1017 NOSIG
Några få moln
Några få moln
  Visa detaljer för London (Heathrow)
Avstånd från stationen: SV 1132kmLFPG - Paris (Charles de Gaulle)
Uppdaterad: 2022-05-17 15:00
 Vind från varierande
Vind: varierande 9 km/h
Temperatur: 28°C
Daggpunkt: 11°C
Luftfuktighet: 35%
Barometer: 1019 hPa
Summering: Klart
Sikt: mer än 10 km
2022/05/17 13:00 LFPG 171300Z VRB05KT CAVOK 28/11 Q1019 NOSIG
Klart
Klart
  Visa detaljer för Paris (Charles de Gaulle)
Avstånd från stationen: SSV 1142kmLSZH - Zürich Airport
Uppdaterad: 2022-05-17 15:20
 Vind från NO
Vind: NO 11 km/h
Temperatur: 25°C
Daggpunkt: 10°C
Luftfuktighet: 39%
Barometer: 1021 hPa
Moln: Några få moln
Sikt: 10 km
Molninformation: Några få moln 1676 m
2022/05/17 13:20 LSZH 171320Z 04006KT 330V110 9999 FEW055 25/10 Q1021 NOSIG
Några få moln
Några få moln
  Visa detaljer för Zürich Airport
Avstånd från stationen: S 1749kmLIRF - Rome Airport (Fiumicino - Leonardo da Vinci)
Uppdaterad: 2022-05-17 15:20
 Vind från V
Vind: V 20 km/h
Temperatur: 25°C
Daggpunkt: 13°C
Luftfuktighet: 47%
Barometer: 1018 hPa
Summering: Klart
Sikt: mer än 10 km
2022/05/17 13:20 LIRF 171320Z 28011KT CAVOK 25/13 Q1018 NOSIG
Klart
Klart
  Visa detaljer för Rome Airport (Fiumicino - Leonardo da Vinci)
Avstånd från stationen: SO 2679kmLTAI - Antalya
Uppdaterad: 2022-05-17 14:50
 Vind från SO
Vind: SO 17 km/h
Temperatur: 24°C
Daggpunkt: 18°C
Luftfuktighet: 69%
Barometer: 1013 hPa
Moln: Några få moln
Sikt: 10 km
Molninformation: Några få moln 762 m
2022/05/17 12:50 LTAI 171250Z 14009KT 9999 FEW025TCU 24/18 Q1013 TEMPO -TSRA
Några få moln
Några få moln
  Visa detaljer för Antalya
Avstånd från stationen: VSV 6074kmKJFK - New Your (JFK)
Uppdaterad: 2022-05-17 14:51
 Vind från VSV
Vind: VSV 22 km/h
Temperatur: 17°C
Daggpunkt: 11°C
Luftfuktighet: 68%
Barometer: 1009.1 hPa
Moln: Klart
Sikt: 16 km
2022/05/17 12:51 KJFK 171251Z 24012KT 10SM CLR 17/11 A2980 RMK AO2 SLP091 T01720111
Klart
Klart
  Visa detaljer för New Your (JFK)
Avstånd från stationen: VSV 8848kmKLAX - Los Angeles International Airport
Uppdaterad: 2022-05-17 14:53
 Vind från O
Vind: O 13 km/h
Temperatur: 16°C
Daggpunkt: 12°C
Luftfuktighet: 77%
Barometer: 1014.2 hPa
Moln: Genommulet
Sikt: 16 km
Molninformation: Några få moln 244 m
Genommulet 366 m
2022/05/17 12:53 KLAX 171253Z 09007KT 10SM FEW008 OVC012 16/12 A2995 RMK AO2 SLP141 T01560122
Genommulet
Genommulet
  Visa detaljer för Los Angeles International Airport
Avstånd från stationen: SO 4968kmOMDB - Dubai International Airport
Uppdaterad: 2022-05-17 15:00
 Vind från VNV
Vind: VNV 17 km/h
Temperatur: 33°C
Värmeindex: 35°C
Daggpunkt: 20°C
Luftfuktighet: 46%
Barometer: 1002 hPa
Moln: Delvis molnigt
Sikt: 6 km
2022/05/17 13:00 OMDB 171300Z 29009KT 260V320 6000 NSC 33/20 Q1002 BECMG 4000 DU
Delvis molnigt
Delvis molnigt
  Visa detaljer för Dubai International Airport
Avstånd från stationen: OSO 8570kmRJTT - Tokyo International Airport
Uppdaterad: 2022-05-17 15:00
 Vind från V
Vind: V 6 km/h
Moln: Några få moln
Sikt: 10 km
Molninformation: Några få moln 457 m
2022/05/17 13:00 RJTT 171300Z 27003KT 250V310 9999 FEW015 BKN/// 16/15 Q1017 NOSIG
Några få moln
Några få moln
  Visa detaljer för Tokyo International Airport
Avstånd från stationen: OSO 7125kmZBAA - Peking (Beijing Capital)
Uppdaterad: 2022-05-17 15:00
 Vind från varierande
Vind: varierande 4 km/h
Temperatur: 18°C
Daggpunkt: 12°C
Luftfuktighet: 68%
Barometer: 1005 hPa
Summering: Klart
Sikt: mer än 10 km
2022/05/17 13:00 ZBAA 171300Z VRB01MPS CAVOK 18/12 Q1005 NOSIG
Klart
Klart
  Visa detaljer för Peking (Beijing Capital)
VÄDER KURIOSA -  Weather TermsDegree Day - Gauges the amount of heating or cooling needed for a building using 65 degrees as a baseline. To compute degree days, the average temperature for a day is taken and referenced to 65. An average temperature of 50 yields 15 heating degree days, while an average temperature of 75 would yield 10 cooling degree days.